createdAt,value
2022-09-26T00:00:02.644Z,10.97
2022-09-26T00:01:02.592Z,11.02
2022-09-26T00:02:02.854Z,10.92
2022-09-26T00:03:02.735Z,10.91
2022-09-26T00:04:02.910Z,10.9
2022-09-26T00:05:02.839Z,10.98
2022-09-26T00:06:02.860Z,10.94
2022-09-26T00:07:02.816Z,10.9
2022-09-26T00:08:02.564Z,10.91
2022-09-26T00:09:02.810Z,10.83
2022-09-26T00:10:02.588Z,10.88
2022-09-26T00:11:02.519Z,10.91
2022-09-26T00:12:02.788Z,10.88
2022-09-26T00:13:02.265Z,10.85
2022-09-26T00:14:02.743Z,10.84
2022-09-26T00:15:02.731Z,10.76
2022-09-26T00:16:02.718Z,10.76
2022-09-26T00:17:02.777Z,10.76
2022-09-26T00:18:02.441Z,10.85
2022-09-26T00:19:02.445Z,10.8
2022-09-26T00:20:02.465Z,10.76
2022-09-26T00:21:02.406Z,10.85
2022-09-26T00:22:02.416Z,10.83
2022-09-26T00:23:02.381Z,10.84
2022-09-26T00:24:02.382Z,10.8
2022-09-26T00:25:02.357Z,10.8
2022-09-26T00:26:02.344Z,10.87
2022-09-26T00:27:02.086Z,10.8
2022-09-26T00:28:02.328Z,10.84
2022-09-26T00:29:02.312Z,10.84
2022-09-26T00:30:02.302Z,10.8
2022-09-26T00:31:02.534Z,10.75
2022-09-26T00:32:02.284Z,10.72
2022-09-26T00:33:02.014Z,10.72
2022-09-26T00:34:02.540Z,10.7
2022-09-26T00:35:02.247Z,10.79
2022-09-26T00:36:02.315Z,10.75
2022-09-26T00:37:02.475Z,10.66
2022-09-26T00:38:02.488Z,10.7
2022-09-26T00:39:02.197Z,10.69
2022-09-26T00:40:02.186Z,10.75
2022-09-26T00:41:02.496Z,10.79
2022-09-26T00:42:02.174Z,10.66
2022-09-26T00:43:01.916Z,10.69
2022-09-26T00:44:02.166Z,10.69
2022-09-26T00:45:02.124Z,10.63
2022-09-26T00:46:02.469Z,10.7
2022-09-26T00:47:01.846Z,10.79
2022-09-26T00:48:01.835Z,10.66
2022-09-26T00:49:02.338Z,10.73
2022-09-26T00:50:02.326Z,10.66
2022-09-26T00:51:02.350Z,10.67
2022-09-26T00:52:02.366Z,10.69
2022-09-26T00:53:02.038Z,10.67
2022-09-26T00:54:02.302Z,10.63
2022-09-26T00:55:02.014Z,10.66
2022-09-26T00:56:02.253Z,10.69
2022-09-26T00:57:02.247Z,10.63
2022-09-26T00:58:01.985Z,10.66
2022-09-26T00:59:01.981Z,10.66
2022-09-26T01:00:01.954Z,10.69
2022-09-26T01:01:02.776Z,10.66
2022-09-26T01:02:02.849Z,10.69
2022-09-26T01:03:01.667Z,10.72
2022-09-26T01:04:02.162Z,10.61
2022-09-26T01:05:01.907Z,10.65
2022-09-26T01:06:02.145Z,10.63
2022-09-26T01:07:01.887Z,10.65
2022-09-26T01:08:01.996Z,10.69
2022-09-26T01:09:01.601Z,10.65
2022-09-26T01:10:01.866Z,10.66
2022-09-26T01:11:01.829Z,10.73
2022-09-26T01:12:01.822Z,10.66
2022-09-26T01:13:01.804Z,10.65
2022-09-26T01:14:01.534Z,10.57
2022-09-26T01:15:01.775Z,10.57
2022-09-26T01:16:01.521Z,10.51
2022-09-26T01:17:02.201Z,10.55
2022-09-26T01:18:02.003Z,10.57
2022-09-26T01:19:01.740Z,10.59
2022-09-26T01:20:01.466Z,10.59
2022-09-26T01:21:01.987Z,10.57
2022-09-26T01:22:01.702Z,10.55
2022-09-26T01:23:01.945Z,10.54
2022-09-26T01:24:02.102Z,10.55
2022-09-26T01:25:01.504Z,10.55
2022-09-26T01:26:02.029Z,10.49
2022-09-26T01:27:01.744Z,10.51
2022-09-26T01:28:01.465Z,10.49
2022-09-26T01:29:01.713Z,10.55
2022-09-26T01:30:01.449Z,10.52
2022-09-26T01:31:02.171Z,10.59
2022-09-26T01:32:01.678Z,10.58
2022-09-26T01:33:01.668Z,10.54
2022-09-26T01:35:01.650Z,10.49
2022-09-26T01:36:01.884Z,10.57
2022-09-26T01:37:01.367Z,10.55
2022-09-26T01:38:01.608Z,10.55
2022-09-26T01:39:01.599Z,10.58
2022-09-26T01:40:01.633Z,10.52
2022-09-26T01:41:01.775Z,10.55
2022-09-26T01:42:01.586Z,10.57
2022-09-26T01:43:01.549Z,10.52
2022-09-26T01:44:01.789Z,10.54
2022-09-26T01:45:01.781Z,10.54
2022-09-26T01:46:01.749Z,10.54
2022-09-26T01:47:01.765Z,10.55
2022-09-26T01:48:01.747Z,10.47
2022-09-26T01:49:01.478Z,10.39
2022-09-26T01:50:01.468Z,10.51
2022-09-26T01:51:01.449Z,10.39
2022-09-26T01:52:01.695Z,10.46
2022-09-26T01:53:01.432Z,10.35
2022-09-26T01:54:01.674Z,10.39
2022-09-26T01:55:01.407Z,10.33
2022-09-26T01:56:01.441Z,10.36
2022-09-26T01:57:01.123Z,10.33
2022-09-26T01:58:01.652Z,10.31
2022-09-26T01:59:01.610Z,10.32
2022-09-26T02:00:01.097Z,10.28
2022-09-26T02:01:01.542Z,10.39
2022-09-26T02:02:01.835Z,10.39
2022-09-26T02:03:01.314Z,10.41
2022-09-26T02:04:01.555Z,10.39
2022-09-26T02:05:01.548Z,10.38
2022-09-26T02:06:01.277Z,10.44
2022-09-26T02:07:01.017Z,10.41
2022-09-26T02:08:01.248Z,10.44
2022-09-26T02:09:01.501Z,10.41
2022-09-26T02:10:00.971Z,10.44
2022-09-26T02:11:01.216Z,10.49
2022-09-26T02:12:01.596Z,10.49
2022-09-26T02:13:01.200Z,10.47
2022-09-26T02:14:01.462Z,10.44
2022-09-26T02:15:01.419Z,10.42
2022-09-26T02:16:01.414Z,10.41
2022-09-26T02:17:01.207Z,10.41
2022-09-26T02:18:01.137Z,10.36
2022-09-26T02:19:01.124Z,10.36
2022-09-26T02:20:01.109Z,10.36
2022-09-26T02:21:01.098Z,10.41
2022-09-26T02:22:00.828Z,10.38
2022-09-26T02:23:00.818Z,10.41
2022-09-26T02:24:01.320Z,10.38
2022-09-26T02:25:01.051Z,10.33
2022-09-26T02:26:01.036Z,10.41
2022-09-26T02:27:01.279Z,10.41
2022-09-26T02:28:01.315Z,10.39
2022-09-26T02:29:01.261Z,10.44
2022-09-26T02:30:01.016Z,10.39
2022-09-26T02:31:00.987Z,10.47
2022-09-26T02:32:01.498Z,10.42
2022-09-26T02:33:00.699Z,10.44
2022-09-26T02:34:00.944Z,10.42
2022-09-26T02:35:00.682Z,10.41
2022-09-26T02:36:01.183Z,10.46
2022-09-26T02:37:01.261Z,10.41
2022-09-26T02:38:00.644Z,10.36
2022-09-26T02:39:00.881Z,10.46
2022-09-26T02:40:01.126Z,10.36
2022-09-26T02:41:01.135Z,10.36
2022-09-26T02:42:00.591Z,10.38
2022-09-26T02:43:01.095Z,10.36
2022-09-26T02:44:01.139Z,10.39
2022-09-26T02:45:00.823Z,10.38
2022-09-26T02:46:01.353Z,10.39
2022-09-26T02:47:00.539Z,10.39
2022-09-26T02:48:01.036Z,10.36
2022-09-26T02:49:01.033Z,10.39
2022-09-26T02:50:00.499Z,10.44
2022-09-26T02:51:00.755Z,10.44
2022-09-26T02:52:00.985Z,10.41
2022-09-26T02:53:00.717Z,10.47
2022-09-26T02:54:00.708Z,10.54
2022-09-26T02:55:00.692Z,10.42
2022-09-26T02:56:00.690Z,10.39
2022-09-26T02:57:00.670Z,10.33
2022-09-26T02:58:00.665Z,10.36
2022-09-26T02:59:00.754Z,10.36
2022-09-26T03:00:00.697Z,10.39
2022-09-26T03:01:00.939Z,10.32
2022-09-26T03:02:00.898Z,10.35
2022-09-26T03:03:00.860Z,10.28
2022-09-26T03:04:00.847Z,10.23
2022-09-26T03:05:01.055Z,10.25
2022-09-26T03:06:00.842Z,10.26
2022-09-26T03:07:00.550Z,10.28
2022-09-26T03:08:00.544Z,10.29
2022-09-26T03:09:00.529Z,10.18
2022-09-26T03:10:00.268Z,10.25
2022-09-26T03:11:00.251Z,10.2
2022-09-26T03:12:00.501Z,10.15
2022-09-26T03:13:00.491Z,10.28
2022-09-26T03:14:00.474Z,10.17
2022-09-26T03:15:03.428Z,10.17
2022-09-26T03:16:00.821Z,10.15
2022-09-26T03:17:00.248Z,10.15
2022-09-26T03:18:00.713Z,10.13
2022-09-26T03:19:00.413Z,10.03
2022-09-26T03:20:00.658Z,10.07
2022-09-26T03:21:00.380Z,10.13
2022-09-26T03:22:00.136Z,10.07
2022-09-26T03:23:00.612Z,10
2022-09-26T03:24:00.348Z,10.02
2022-09-26T03:25:00.084Z,10
2022-09-26T03:26:00.588Z,10
2022-09-26T03:27:00.062Z,10.02
2022-09-26T03:28:00.049Z,9.99
2022-09-26T03:29:00.046Z,9.92
2022-09-26T03:30:00.275Z,9.92
2022-09-26T03:31:00.403Z,10
2022-09-26T03:32:00.642Z,9.98
2022-09-26T03:33:00.496Z,9.98
2022-09-26T03:49:53.750Z,9.77
2022-09-26T03:50:53.652Z,9.84
2022-09-26T03:51:53.623Z,9.78
2022-09-26T03:52:53.626Z,9.8
2022-09-26T03:53:53.078Z,9.77
2022-09-26T03:54:53.331Z,9.78
2022-09-26T03:55:53.573Z,9.77
2022-09-26T03:56:53.296Z,9.72
2022-09-26T03:57:53.277Z,9.77
2022-09-26T03:58:53.263Z,9.8
2022-09-26T03:59:53.260Z,9.8
2022-09-26T04:00:53.469Z,9.77
2022-09-26T04:01:53.693Z,9.78
2022-09-26T04:02:53.464Z,9.77
2022-09-26T04:03:55.376Z,9.77
2022-09-26T04:04:53.188Z,9.8
2022-09-26T04:05:53.503Z,9.8
2022-09-26T04:06:53.154Z,9.8
2022-09-26T04:07:53.139Z,9.84
2022-09-26T04:08:53.401Z,9.89
2022-09-26T04:09:53.372Z,9.82
2022-09-26T04:10:53.357Z,9.9
2022-09-26T04:11:53.346Z,9.82
2022-09-26T04:12:52.827Z,9.88
2022-09-26T04:13:58.389Z,9.85
2022-09-26T04:14:53.052Z,9.9
2022-09-26T04:15:53.037Z,9.92
2022-09-26T04:16:53.659Z,9.82
2022-09-26T04:17:53.274Z,9.93
2022-09-26T04:18:52.744Z,9.93
2022-09-26T04:19:53.247Z,9.93
2022-09-26T04:20:52.718Z,9.95
2022-09-26T04:21:53.292Z,9.96
2022-09-26T04:22:52.949Z,9.9
2022-09-26T04:23:52.679Z,9.92
2022-09-26T04:24:53.180Z,9.92
2022-09-26T04:25:53.172Z,9.93
2022-09-26T04:26:53.168Z,9.93
2022-09-26T04:27:53.138Z,9.93
2022-09-26T04:28:52.875Z,9.96
2022-09-26T04:29:52.863Z,9.98
2022-09-26T04:30:52.846Z,10.02
2022-09-26T04:31:53.121Z,10.03
2022-09-26T04:32:53.077Z,10.07
2022-09-26T04:33:52.812Z,10.05
2022-09-26T04:34:52.804Z,9.98
2022-09-26T04:35:52.784Z,10.05
2022-09-26T04:36:53.027Z,10.07
2022-09-26T04:37:53.112Z,10.07
2022-09-26T04:38:53.003Z,10.07
2022-09-26T04:39:52.767Z,10
2022-09-26T04:40:52.882Z,10.02
2022-09-26T04:41:52.713Z,10.03
2022-09-26T04:42:52.949Z,10.02
2022-09-26T04:43:52.699Z,10.07
2022-09-26T04:44:52.678Z,10.07
2022-09-26T04:45:52.812Z,10.07
2022-09-26T04:46:52.662Z,10.1
2022-09-26T04:47:52.388Z,10.05
2022-09-26T04:48:52.885Z,10.07
2022-09-26T04:49:52.360Z,10.02
2022-09-26T04:50:52.372Z,10
2022-09-26T04:51:52.589Z,9.98
2022-09-26T04:52:52.838Z,10.05
2022-09-26T04:53:52.976Z,9.96
2022-09-26T04:54:52.554Z,9.99
2022-09-26T04:55:52.546Z,10
2022-09-26T04:56:52.527Z,10
2022-09-26T04:57:52.772Z,10.07
2022-09-26T04:58:52.772Z,9.99
2022-09-26T04:59:52.487Z,10
2022-09-26T05:00:53.042Z,10.05
2022-09-26T05:01:53.053Z,10.03
2022-09-26T05:02:52.491Z,10.07
2022-09-26T05:03:52.449Z,10.02
2022-09-26T05:04:52.682Z,9.93
2022-09-26T05:05:52.676Z,10
2022-09-26T05:06:52.658Z,9.95
2022-09-26T05:07:52.648Z,9.93
2022-09-26T05:08:52.633Z,9.9
2022-09-26T05:09:52.694Z,9.98
2022-09-26T05:10:52.611Z,9.95
2022-09-26T05:11:52.598Z,9.95
2022-09-26T05:12:52.584Z,9.93
2022-09-26T05:13:57.934Z,9.98
2022-09-26T05:14:52.302Z,9.9
2022-09-26T05:15:52.508Z,10
2022-09-26T05:16:52.730Z,9.93
2022-09-26T05:17:52.520Z,9.98
2022-09-26T05:18:52.255Z,9.93
2022-09-26T05:19:52.501Z,9.98
2022-09-26T05:20:52.485Z,9.93
2022-09-26T05:21:52.476Z,9.93
2022-09-26T05:22:51.957Z,10.08
2022-09-26T05:23:52.449Z,9.93
2022-09-26T05:24:52.183Z,9.98
2022-09-26T05:25:52.505Z,9.93
2022-09-26T05:26:52.418Z,10
2022-09-26T05:27:51.900Z,10.03
2022-09-26T05:28:52.392Z,10.05
2022-09-26T05:29:51.875Z,10.03
2022-09-26T05:30:52.114Z,10.05
2022-09-26T05:31:52.396Z,10.03
2022-09-26T05:32:52.097Z,10.05
2022-09-26T05:33:52.073Z,9.99
2022-09-26T05:34:52.067Z,9.98
2022-09-26T05:35:52.123Z,10.07
2022-09-26T05:36:51.788Z,10.03
2022-09-26T05:37:52.026Z,10
2022-09-26T05:38:52.337Z,9.92
2022-09-26T05:39:52.253Z,10.1
2022-09-26T05:40:52.353Z,10.02
2022-09-26T05:41:52.306Z,9.98
2022-09-26T05:42:51.966Z,9.98
2022-09-26T05:43:51.955Z,9.96
2022-09-26T05:44:51.941Z,9.9
2022-09-26T05:45:51.924Z,9.82
2022-09-26T05:46:52.149Z,9.82
2022-09-26T05:47:52.167Z,9.81
2022-09-26T05:48:52.152Z,9.84
2022-09-26T05:49:51.882Z,9.82
2022-09-26T05:50:51.869Z,9.9
2022-09-26T05:51:51.850Z,9.81
2022-09-26T05:52:51.841Z,9.88
2022-09-26T05:53:51.943Z,9.9
2022-09-26T05:54:51.824Z,9.95
2022-09-26T05:55:52.066Z,9.9
2022-09-26T05:56:51.536Z,10.03
2022-09-26T05:57:52.126Z,10.03
2022-09-26T05:58:52.144Z,10
2022-09-26T05:59:52.018Z,10.13
2022-09-26T06:00:52.069Z,10.13
2022-09-26T06:01:52.082Z,10.11
2022-09-26T06:02:51.979Z,10.11
2022-09-26T06:03:51.994Z,10.13
2022-09-26T06:04:52.419Z,10.17
2022-09-26T06:05:52.660Z,10.21
2022-09-26T06:06:52.652Z,10.28
2022-09-26T06:07:52.890Z,10.17
2022-09-26T06:08:52.914Z,10.28
2022-09-26T06:09:52.617Z,10.23
2022-09-26T06:10:52.599Z,10.29
2022-09-26T06:11:52.590Z,10.38
2022-09-26T06:12:56.033Z,10.36
2022-09-26T06:13:52.591Z,10.35
2022-09-26T06:14:52.556Z,10.36
2022-09-26T06:15:52.349Z,10.33
2022-09-26T06:16:52.815Z,10.42
2022-09-26T06:17:52.514Z,10.47
2022-09-26T06:18:52.529Z,10.44
2022-09-26T06:19:52.490Z,10.47
2022-09-26T06:20:52.484Z,10.41
2022-09-26T06:21:52.213Z,10.38
2022-09-26T06:22:52.711Z,10.36
2022-09-26T06:23:52.450Z,10.31
2022-09-26T06:24:52.177Z,10.26
2022-09-26T06:25:52.681Z,10.2
2022-09-26T06:26:52.675Z,10.23
2022-09-26T06:27:55.182Z,10.14
2022-09-26T06:28:52.700Z,10.18
2022-09-26T06:29:52.511Z,10.02
2022-09-26T06:30:52.626Z,10.07
2022-09-26T06:31:52.861Z,9.99
2022-09-26T06:32:52.336Z,9.98
2022-09-26T06:33:52.327Z,9.96
2022-09-26T06:34:52.060Z,9.81
2022-09-26T06:35:52.558Z,9.84
2022-09-26T06:36:52.297Z,9.78
2022-09-26T06:37:52.280Z,9.81
2022-09-26T06:38:52.269Z,9.78
2022-09-26T06:39:54.665Z,9.75
2022-09-26T06:40:52.789Z,9.72
2022-09-26T06:41:51.984Z,9.67
2022-09-26T06:42:52.490Z,9.71
2022-09-26T06:43:52.136Z,9.74
2022-09-26T06:44:52.591Z,9.78
2022-09-26T06:45:52.213Z,9.7
2022-09-26T06:46:52.202Z,9.72
2022-09-26T06:47:52.410Z,9.67
2022-09-26T06:48:52.424Z,9.67
2022-09-26T06:49:52.129Z,9.6
2022-09-26T06:50:52.378Z,9.6
2022-09-26T06:51:52.379Z,9.55
2022-09-26T06:52:52.095Z,9.55
2022-09-26T06:53:52.355Z,9.66
2022-09-26T06:54:51.816Z,9.59
2022-09-26T06:55:52.059Z,9.62
2022-09-26T06:56:51.788Z,9.56
2022-09-26T06:57:52.036Z,9.6
2022-09-26T06:58:51.765Z,9.55
2022-09-26T06:59:52.264Z,9.57
2022-09-26T07:00:52.800Z,9.63
2022-09-26T07:01:52.974Z,9.63
2022-09-26T07:02:52.228Z,9.59
2022-09-26T07:03:54.311Z,9.7
2022-09-26T07:04:53.925Z,9.56
2022-09-26T07:05:51.934Z,9.63
2022-09-26T07:06:52.177Z,9.53
2022-09-26T07:07:52.167Z,9.48
2022-09-26T07:09:15.188Z,9.5
2022-09-26T07:09:52.487Z,9.53
2022-09-26T07:10:52.130Z,9.55
2022-09-26T07:12:18.504Z,9.57
2022-09-26T07:12:52.129Z,9.56
2022-09-26T07:13:52.097Z,9.57
2022-09-26T07:14:58.201Z,9.64
2022-09-26T07:15:51.692Z,9.71
2022-09-26T07:16:51.868Z,9.74
2022-09-26T07:17:52.245Z,9.66
2022-09-26T07:18:51.521Z,9.75
2022-09-26T07:19:51.761Z,9.77
2022-09-26T07:20:57.135Z,9.81
2022-09-26T07:21:51.993Z,9.82
2022-09-26T07:22:51.982Z,9.93
2022-09-26T07:23:51.716Z,9.96
2022-09-26T07:24:51.699Z,9.9
2022-09-26T07:25:51.694Z,9.96
2022-09-26T07:26:51.932Z,9.96
2022-09-26T07:27:51.918Z,9.93
2022-09-26T07:28:58.015Z,9.96
2022-09-26T07:29:51.641Z,9.92
2022-09-26T07:30:51.380Z,9.93
2022-09-26T07:31:51.611Z,9.9
2022-09-26T07:32:51.928Z,9.9
2022-09-26T07:33:51.871Z,9.93
2022-09-26T07:34:51.583Z,9.93
2022-09-26T07:35:51.825Z,9.95
2022-09-26T07:36:51.557Z,9.92
2022-09-26T07:37:51.797Z,9.9
2022-09-26T07:38:51.630Z,9.93
2022-09-26T07:40:01.683Z,9.96
2022-09-26T07:40:51.733Z,9.92
2022-09-26T07:41:51.494Z,10.05
2022-09-26T07:43:35.801Z,9.98
2022-09-26T07:45:32.355Z,10.05
2022-09-26T07:45:52.214Z,10.03
2022-09-26T07:46:52.570Z,10.02
2022-09-26T07:47:51.944Z,10.05
2022-09-26T07:48:52.066Z,10.14
2022-09-26T07:49:52.283Z,9.99
2022-09-26T07:50:51.905Z,10.08
2022-09-26T07:51:51.895Z,9.99
2022-09-26T07:52:52.136Z,10.05
2022-09-26T07:53:52.130Z,10.02
2022-09-26T07:54:52.115Z,10.02
2022-09-26T07:55:52.101Z,10.08
2022-09-26T07:56:52.083Z,10.08
2022-09-26T07:57:51.828Z,10.11
2022-09-26T07:58:51.801Z,10.15
2022-09-26T07:59:52.091Z,10.14
2022-09-26T08:00:52.038Z,10.18
2022-09-26T08:01:52.122Z,10.25
2022-09-26T08:02:51.838Z,10.23
2022-09-26T08:03:51.752Z,10.21
2022-09-26T08:04:52.117Z,10.25
2022-09-26T08:05:52.005Z,10.29
2022-09-26T08:06:51.469Z,10.39
2022-09-26T08:07:51.951Z,10.36
2022-09-26T08:08:51.681Z,10.51
2022-09-26T08:09:51.676Z,10.54
2022-09-26T08:10:51.691Z,10.59
2022-09-26T08:11:51.649Z,10.63
2022-09-26T08:12:51.640Z,10.69
2022-09-26T08:13:51.623Z,10.69
2022-09-26T08:14:51.619Z,10.73
2022-09-26T08:15:52.098Z,10.76
2022-09-26T08:16:51.592Z,10.7
2022-09-26T08:17:51.323Z,10.77
2022-09-26T08:18:51.564Z,10.9
2022-09-26T08:19:51.551Z,10.9
2022-09-26T08:20:51.697Z,10.91
2022-09-26T08:21:51.825Z,11.06
2022-09-26T08:22:51.518Z,11.05
2022-09-26T08:23:51.801Z,11.03
2022-09-26T08:24:51.496Z,11.1
2022-09-26T08:25:51.230Z,11.1
2022-09-26T08:26:51.732Z,11.15
2022-09-26T08:27:51.730Z,11.12
2022-09-26T08:28:51.717Z,11.09
2022-09-26T08:29:51.694Z,11.16
2022-09-26T08:30:51.527Z,11.13
2022-09-26T08:31:51.938Z,11.13
2022-09-26T08:32:51.660Z,11.15
2022-09-26T08:33:51.393Z,11.18
2022-09-26T08:34:51.124Z,11.09
2022-09-26T08:35:51.391Z,11.18
2022-09-26T08:36:51.709Z,11.23
2022-09-26T08:37:52.280Z,11.33
2022-09-26T08:38:52.324Z,11.26
2022-09-26T08:39:51.972Z,11.39
2022-09-26T08:40:52.195Z,11.43
2022-09-26T08:41:52.201Z,11.46
2022-09-26T08:42:52.203Z,11.51
2022-09-26T08:43:52.203Z,11.57
2022-09-26T08:44:52.168Z,11.57
2022-09-26T08:45:52.660Z,11.66
2022-09-26T08:46:52.276Z,11.61
2022-09-26T08:47:51.880Z,11.66
2022-09-26T08:48:51.616Z,11.61
2022-09-26T08:49:51.848Z,11.68
2022-09-26T08:50:51.844Z,11.63
2022-09-26T08:51:52.095Z,11.73
2022-09-26T08:52:52.266Z,11.67
2022-09-26T08:53:52.099Z,11.67
2022-09-26T08:54:52.052Z,11.75
2022-09-26T08:55:51.538Z,11.67
2022-09-26T08:56:51.778Z,11.75
2022-09-26T08:57:51.782Z,11.85
2022-09-26T08:58:52.017Z,11.79
2022-09-26T08:59:52.004Z,11.84
2022-09-26T09:00:52.008Z,11.89
2022-09-26T09:01:52.595Z,12.03
2022-09-26T09:02:52.395Z,12.03
2022-09-26T09:03:51.961Z,12.22
2022-09-26T09:04:57.259Z,12.23
2022-09-26T09:05:51.422Z,12.22
2022-09-26T09:06:51.670Z,12.38
2022-09-26T09:07:51.678Z,12.45
2022-09-26T09:08:51.768Z,12.44
2022-09-26T09:09:51.673Z,12.45
2022-09-26T09:10:51.636Z,12.29
2022-09-26T09:11:56.027Z,12.38
2022-09-26T09:12:51.610Z,12.28
2022-09-26T09:13:51.611Z,12.43
2022-09-26T09:15:36.982Z,12.69
2022-09-26T09:15:52.053Z,12.55
2022-09-26T09:16:51.823Z,12.8
2022-09-26T09:17:51.304Z,12.99
2022-09-26T09:18:51.561Z,12.96
2022-09-26T09:19:51.535Z,13.11
2022-09-26T09:20:51.532Z,13.21
2022-09-26T09:21:51.781Z,13.35
2022-09-26T09:22:51.778Z,13.31
2022-09-26T09:23:51.758Z,13.36
2022-09-26T09:24:52.045Z,13.19
2022-09-26T09:25:51.886Z,13.11
2022-09-26T09:27:52.887Z,12.92
2022-09-26T09:28:13.852Z,12.84
2022-09-26T09:29:18.952Z,12.65
2022-09-26T09:30:21.823Z,12.61
2022-09-26T09:31:13.631Z,12.63
2022-09-26T09:32:13.565Z,12.77
2022-09-26T09:33:13.543Z,12.77
2022-09-26T09:34:13.850Z,12.76
2022-09-26T09:35:13.273Z,12.91
2022-09-26T09:36:13.281Z,12.91
2022-09-26T09:37:13.511Z,12.98
2022-09-26T09:38:13.501Z,12.96
2022-09-26T09:39:12.987Z,13.06
2022-09-26T09:40:13.674Z,13.24
2022-09-26T09:41:13.270Z,13.21
2022-09-26T09:42:13.463Z,13.32
2022-09-26T09:43:13.438Z,13.45
2022-09-26T09:44:13.055Z,13.51
2022-09-26T09:45:13.200Z,13.55
2022-09-26T09:46:13.346Z,13.65
2022-09-26T09:47:13.398Z,13.7
2022-09-26T09:48:13.138Z,13.83
2022-09-26T09:49:13.121Z,13.86
2022-09-26T09:50:13.115Z,14.02
2022-09-26T09:51:13.110Z,14.01
2022-09-26T09:52:13.101Z,14.03
2022-09-26T09:53:13.351Z,14.15
2022-09-26T09:54:13.088Z,14.16
2022-09-26T09:55:13.330Z,14.26
2022-09-26T09:56:13.137Z,14.28
2022-09-26T09:57:13.333Z,14.31
2022-09-26T09:58:13.035Z,14.28
2022-09-26T09:59:13.301Z,14.28
2022-09-26T10:00:13.032Z,14.28
2022-09-26T10:01:13.265Z,14.33
2022-09-26T10:02:13.006Z,14.31
2022-09-26T10:03:13.116Z,14.27
2022-09-26T10:04:13.059Z,14.33
2022-09-26T10:05:13.085Z,14.3
2022-09-26T10:06:49.936Z,14.33
2022-09-26T10:07:12.981Z,14.41
2022-09-26T10:08:12.964Z,14.48
2022-09-26T10:09:43.725Z,14.48
2022-09-26T10:10:12.826Z,14.46
2022-09-26T10:11:13.002Z,14.53
2022-09-26T10:12:13.330Z,14.63
2022-09-26T10:13:13.184Z,14.63
2022-09-26T10:14:12.924Z,14.74
2022-09-26T10:15:12.623Z,14.71
2022-09-26T10:16:13.148Z,14.66
2022-09-26T10:17:13.121Z,14.75
2022-09-26T10:18:30.683Z,14.94
2022-09-26T10:19:12.861Z,15.04
2022-09-26T10:20:12.835Z,15.12
2022-09-26T10:21:12.827Z,15.23
2022-09-26T10:22:13.070Z,15.33
2022-09-26T10:23:12.805Z,15.41
2022-09-26T10:24:12.808Z,15.41
2022-09-26T10:25:12.543Z,15.4
2022-09-26T10:26:12.527Z,15.2
2022-09-26T10:27:12.775Z,15.13
2022-09-26T10:28:13.090Z,15.31
2022-09-26T10:29:13.066Z,15.34
2022-09-26T10:30:13.014Z,15.4
2022-09-26T10:31:13.404Z,15.27
2022-09-26T10:32:12.474Z,15.23
2022-09-26T10:33:12.977Z,15.16
2022-09-26T10:34:12.766Z,15.08
2022-09-26T10:35:15.048Z,15.04
2022-09-26T10:36:12.709Z,14.98
2022-09-26T10:37:12.697Z,14.89
2022-09-26T10:38:12.687Z,15.02
2022-09-26T10:39:12.421Z,15.2
2022-09-26T10:40:12.974Z,15.31
2022-09-26T10:41:12.806Z,15.31
2022-09-26T10:42:12.668Z,15.4
2022-09-26T10:43:12.655Z,15.41
2022-09-26T10:44:12.760Z,15.4
2022-09-26T10:45:12.906Z,15.45
2022-09-26T10:46:12.862Z,15.38
2022-09-26T10:47:12.864Z,15.44
2022-09-26T10:48:12.599Z,15.6
2022-09-26T10:49:12.366Z,15.59
2022-09-26T10:50:12.587Z,15.62
2022-09-26T10:51:12.576Z,15.52
2022-09-26T10:52:18.734Z,15.65
2022-09-26T10:53:12.555Z,15.7
2022-09-26T10:54:12.634Z,15.68
2022-09-26T10:55:12.800Z,15.58
2022-09-26T10:56:12.861Z,15.51
2022-09-26T10:57:12.842Z,15.49
2022-09-26T10:58:18.258Z,15.49
2022-09-26T10:59:12.589Z,15.41
2022-09-26T11:00:12.895Z,15.37
2022-09-26T11:01:12.877Z,15.35
2022-09-26T11:02:12.838Z,15.43
2022-09-26T11:03:13.002Z,15.51
2022-09-26T11:04:13.135Z,15.43
2022-09-26T11:05:12.831Z,15.27
2022-09-26T11:06:12.783Z,15.07
2022-09-26T11:07:12.773Z,14.95
2022-09-26T11:08:12.762Z,14.98
2022-09-26T11:09:12.754Z,15.12
2022-09-26T11:10:12.336Z,14.97
2022-09-26T11:11:12.224Z,14.95
2022-09-26T11:12:12.473Z,14.82
2022-09-26T11:13:12.458Z,14.7
2022-09-26T11:14:12.651Z,14.67
2022-09-26T11:15:12.708Z,14.63
2022-09-26T11:16:13.204Z,14.67
2022-09-26T11:17:12.454Z,14.85
2022-09-26T11:18:12.419Z,14.86
2022-09-26T11:19:12.502Z,15.02
2022-09-26T11:20:12.708Z,15.15
2022-09-26T11:21:32.248Z,15.26
2022-09-26T11:22:13.106Z,15.35
2022-09-26T11:23:12.392Z,15.35
2022-09-26T11:24:12.726Z,15.34
2022-09-26T11:25:12.616Z,15.3
2022-09-26T11:26:12.613Z,15.33
2022-09-26T11:27:12.341Z,15.56
2022-09-26T11:28:12.349Z,15.68
2022-09-26T11:29:12.370Z,15.86
2022-09-26T11:30:12.615Z,16
2022-09-26T11:31:12.766Z,16.1
2022-09-26T11:32:12.616Z,16.26
2022-09-26T11:33:12.637Z,16.4
2022-09-26T11:34:12.603Z,16.45
2022-09-26T11:35:12.533Z,16.49
2022-09-26T11:36:12.275Z,16.51
2022-09-26T11:37:12.021Z,16.51
2022-09-26T11:38:12.261Z,16.44
2022-09-26T11:39:12.258Z,16.49
2022-09-26T11:40:14.902Z,16.44
2022-09-26T11:41:12.268Z,16.32
2022-09-26T11:42:12.507Z,16.3
2022-09-26T11:43:12.524Z,16.27
2022-09-26T11:44:12.051Z,16.21
2022-09-26T11:45:12.501Z,15.93
2022-09-26T11:46:12.590Z,15.93
2022-09-26T11:47:12.477Z,15.67
2022-09-26T11:48:12.322Z,15.44
2022-09-26T11:49:12.236Z,15.37
2022-09-26T11:50:12.475Z,15.34
2022-09-26T11:51:12.445Z,15.22
2022-09-26T11:52:12.445Z,15.08
2022-09-26T11:53:12.185Z,15.05
2022-09-26T11:54:12.217Z,15.02
2022-09-26T11:55:12.158Z,15.08
2022-09-26T11:56:12.558Z,15.08
2022-09-26T11:57:12.151Z,15.04
2022-09-26T11:58:12.135Z,15.07
2022-09-26T11:59:12.134Z,15.01
2022-09-26T12:00:12.275Z,15.15
2022-09-26T12:01:12.119Z,15.1
2022-09-26T12:02:12.151Z,14.98
2022-09-26T12:03:12.691Z,15.05
2022-09-26T12:04:12.721Z,14.95
2022-09-26T12:05:12.371Z,14.94
2022-09-26T12:06:12.330Z,14.83
2022-09-26T12:07:12.065Z,14.85
2022-09-26T12:08:12.055Z,15.01
2022-09-26T12:09:12.308Z,15.05
2022-09-26T12:10:12.384Z,15.01
2022-09-26T12:11:12.291Z,15.08
2022-09-26T12:12:12.028Z,15.19
2022-09-26T12:13:12.033Z,15.34
2022-09-26T12:14:12.384Z,15.23
2022-09-26T12:15:11.753Z,15.23
2022-09-26T12:16:12.529Z,15.23
2022-09-26T12:17:12.007Z,15.25
2022-09-26T12:18:11.983Z,15.37
2022-09-26T12:19:19.119Z,15.34
2022-09-26T12:20:12.268Z,15.33
2022-09-26T12:21:12.244Z,15.26
2022-09-26T12:22:12.213Z,15.16
2022-09-26T12:23:11.955Z,15.12
2022-09-26T12:24:12.186Z,15.26
2022-09-26T12:25:13.754Z,15.18
2022-09-26T12:26:12.178Z,15.35
2022-09-26T12:27:12.169Z,15.37
2022-09-26T12:28:11.909Z,15.45
2022-09-26T12:29:12.150Z,15.56
2022-09-26T12:30:12.230Z,15.58
2022-09-26T12:31:13.970Z,15.75
2022-09-26T12:32:11.881Z,15.86
2022-09-26T12:33:11.879Z,15.99
2022-09-26T12:34:11.677Z,16
2022-09-26T12:35:12.162Z,15.88
2022-09-26T12:36:11.844Z,15.93
2022-09-26T12:37:12.159Z,15.73
2022-09-26T12:38:12.106Z,15.74
2022-09-26T12:39:12.284Z,15.73
2022-09-26T12:40:12.208Z,15.65
2022-09-26T12:41:12.213Z,15.47
2022-09-26T12:42:11.807Z,15.37
2022-09-26T12:43:11.807Z,15.23
2022-09-26T12:44:11.791Z,15.23
2022-09-26T12:45:11.780Z,15.12
2022-09-26T12:46:12.298Z,15.12
2022-09-26T12:47:11.517Z,15.15
2022-09-26T12:48:11.754Z,15.02
2022-09-26T12:49:11.971Z,15.12
2022-09-26T12:50:12.065Z,15.12
2022-09-26T12:51:12.040Z,15.02
2022-09-26T12:52:11.731Z,15.01
2022-09-26T12:53:11.751Z,15.05
2022-09-26T12:54:11.712Z,15.05
2022-09-26T12:55:11.962Z,15.04
2022-09-26T12:56:11.706Z,15.05
2022-09-26T12:57:11.692Z,15.12
2022-09-26T12:58:11.953Z,15.23
2022-09-26T12:59:11.996Z,15.23
2022-09-26T13:00:11.667Z,15.2
2022-09-26T13:01:12.185Z,15.37
2022-09-26T13:02:12.333Z,15.22
2022-09-26T13:03:12.339Z,15.23
2022-09-26T13:04:11.899Z,15.22
2022-09-26T13:05:11.635Z,15.12
2022-09-26T13:06:13.787Z,15.19
2022-09-26T13:07:23.751Z,15.27
2022-09-26T13:08:12.615Z,15.26
2022-09-26T13:09:13.008Z,15.13
2022-09-26T13:10:12.999Z,15.18
2022-09-26T13:11:12.851Z,15.25
2022-09-26T13:12:12.621Z,15.18
2022-09-26T13:13:12.569Z,15.22
2022-09-26T13:14:12.315Z,15.23
2022-09-26T13:15:12.813Z,15.26
2022-09-26T13:16:12.781Z,15.26
2022-09-26T13:17:12.806Z,15.1
2022-09-26T13:18:12.534Z,15.13
2022-09-26T13:19:12.830Z,15.18